aviador You're here:

KMYJ Decoded Metar

in
Report Time2018-06-18 18:55:00
UTC Time2018-06-18 19:15:50
Flight Rules vfr VFR
Wind180° at 06 kt
W.Decomp.*RWY 18: 6.0 kt HW -0 kt LCW
RWY 24: 3.0 kt HW 5.2 kt LCW
W.Rank180° ranks 4
Current wind is below 180° avg. (8.9)
Visibility9999 m
Phenomena:N/A
Clouds:Scattered 050 Hf
Scattered 070 Hf
Expected CloudBase > 4,000 ft AGL from Temp-Dew spread
CeilingNone
Temp32°C
Dew Point22°C (55% RH)
Heat Index35.6°C
QNH1017 hPa
Raw Report
KMYJ 181855Z AUTO 18006KT 7SM SCT050 SCT070 32/22 A3002 RMK
AO2=

Extra information for KMYJ:More info

Social comments